createdAt,value
2022-12-06T03:04:32.268Z,6.95
2022-12-06T03:09:37.616Z,5.35
2022-12-06T03:14:47.361Z,6.03
2022-12-06T03:20:07.746Z,5.55
2022-12-06T03:25:37.177Z,5.45
2022-12-06T03:30:47.065Z,6.28
2022-12-06T03:35:54.081Z,5.88
2022-12-06T03:41:17.917Z,6.93
2022-12-06T03:46:44.493Z,5.90
2022-12-06T03:51:53.354Z,6.82
2022-12-06T03:56:57.426Z,6.57
2022-12-06T04:02:01.338Z,5.57
2022-12-06T04:07:06.386Z,5.68
2022-12-06T04:12:39.412Z,5.28
2022-12-06T04:18:02.408Z,7.25
2022-12-06T04:23:06.151Z,6.95
2022-12-06T04:28:30.277Z,6.32
2022-12-06T04:33:59.767Z,5.78
2022-12-06T04:39:07.151Z,5.75
2022-12-06T04:44:13.999Z,7.47
2022-12-06T04:49:20.988Z,6.25
2022-12-06T04:54:24.787Z,5.07
2022-12-06T04:59:28.769Z,7.20
2022-12-06T05:04:33.686Z,6.82
2022-12-06T05:10:05.739Z,4.25
2022-12-06T05:15:09.104Z,6.25
2022-12-06T05:20:15.876Z,6.10
2022-12-06T05:25:18.797Z,6.43
2022-12-06T05:30:22.483Z,7.43
2022-12-06T05:35:26.797Z,5.03
2022-12-06T05:40:37.699Z,6.35
2022-12-06T05:45:42.996Z,6.68
2022-12-06T05:50:47.572Z,7.05
2022-12-06T05:55:51.098Z,7.80
2022-12-06T06:00:57.078Z,6.88
2022-12-06T06:06:03.692Z,6.88
2022-12-06T06:11:33.241Z,8.27
2022-12-06T06:16:38.815Z,7.70
2022-12-06T06:21:42.337Z,8.48
2022-12-06T06:26:44.761Z,7.18
2022-12-06T06:31:47.125Z,6.50
2022-12-06T06:36:52.818Z,5.15
2022-12-06T06:41:55.161Z,6.05
2022-12-06T06:47:09.451Z,5.90
2022-12-06T06:52:15.029Z,8.30
2022-12-06T06:57:19.099Z,5.75
2022-12-06T07:02:23.008Z,6.93
2022-12-06T07:07:26.970Z,6.25
2022-12-06T07:12:29.825Z,7.47
2022-12-06T07:17:36.182Z,6.70
2022-12-06T07:22:40.209Z,8.15
2022-12-06T07:28:11.743Z,6.07
2022-12-06T07:33:14.467Z,5.93
2022-12-06T07:38:18.281Z,6.78
2022-12-06T07:43:39.736Z,8.38
2022-12-06T07:48:45.905Z,6.38
2022-12-06T07:53:49.748Z,8.77
2022-12-06T07:58:54.645Z,6.25
2022-12-06T08:04:03.026Z,8.52
2022-12-06T08:09:10.919Z,5.95
2022-12-06T08:14:43.159Z,6.23
2022-12-06T08:19:47.616Z,8.25
2022-12-06T08:24:58.263Z,8.73
2022-12-06T08:30:06.979Z,9.05
2022-12-06T08:35:14.273Z,8.85
2022-12-06T08:40:39.388Z,6.57
2022-12-06T08:45:59.270Z,7.65
2022-12-06T08:51:49.417Z,8.32
2022-12-06T08:57:01.375Z,9.65
2022-12-06T09:02:15.279Z,11.32
2022-12-06T09:31:07.097Z,9.52
2022-12-06T09:50:09.015Z,10.93
2022-12-06T09:55:30.087Z,8.93
2022-12-06T10:01:00.038Z,9.73
2022-12-06T10:06:52.770Z,7.93
2022-12-06T10:32:39.789Z,7.40
2022-12-06T10:45:59.015Z,8.75
2022-12-06T11:37:44.222Z,7.95
2022-12-06T11:50:30.045Z,5.90
2022-12-06T11:56:11.372Z,7.45
2022-12-06T12:01:43.315Z,8.98
2022-12-06T12:14:10.487Z,8.17
2022-12-06T12:20:25.247Z,10.15
2022-12-06T12:43:27.300Z,8.80
2022-12-06T13:01:08.679Z,10.88
2022-12-06T20:54:52.429Z,16.45
2022-12-06T21:06:29.761Z,20.05
2022-12-06T21:12:06.035Z,21.23
2022-12-06T21:17:28.837Z,20.63
2022-12-06T21:34:46.168Z,15.55
2022-12-06T21:40:22.099Z,12.18
2022-12-06T21:45:59.318Z,12.75
2022-12-06T21:57:40.668Z,13.50
2022-12-06T22:08:27.941Z,12.75
2022-12-06T22:19:24.925Z,13.05
2022-12-06T22:53:13.711Z,12.25
2022-12-06T22:58:40.407Z,14.10
2022-12-06T23:03:47.987Z,11.05
2022-12-06T23:09:09.030Z,17.35
2022-12-06T23:44:47.397Z,16.58
